createdAt,value
2019-05-06T00:01:00.173Z,5.58
2019-05-06T00:03:31.466Z,5.62
2019-05-06T00:06:03.950Z,5.66
2019-05-06T00:08:35.336Z,5.65
2019-05-06T00:11:06.629Z,5.63
2019-05-06T00:13:37.882Z,5.63
2019-05-06T00:16:09.373Z,5.61
2019-05-06T00:18:40.634Z,5.62
2019-05-06T00:21:11.929Z,5.60
2019-05-06T00:23:49.275Z,5.60
2019-05-06T00:26:39.458Z,5.59
2019-05-06T00:29:24.175Z,5.57
2019-05-06T00:31:55.615Z,5.52
2019-05-06T00:34:26.883Z,5.49
2019-05-06T00:36:58.184Z,5.46
2019-05-06T00:39:44.427Z,5.44
2019-05-06T00:42:46.625Z,5.40
2019-05-06T00:45:17.964Z,5.37
2019-05-06T00:47:49.273Z,5.38
2019-05-06T00:50:20.554Z,5.37
2019-05-06T00:52:53.935Z,5.34
2019-05-06T00:55:25.323Z,5.30
2019-05-06T00:57:56.633Z,5.28
2019-05-06T01:00:33.757Z,5.22
2019-05-06T01:03:05.076Z,5.18
2019-05-06T01:05:36.350Z,5.15
2019-05-06T01:08:07.643Z,5.09
2019-05-06T01:10:38.978Z,5.05
2019-05-06T01:13:20.054Z,5.05
2019-05-06T01:15:51.348Z,5.00
2019-05-06T01:18:24.499Z,4.96
2019-05-06T01:21:10.197Z,4.90
2019-05-06T01:23:45.053Z,4.85
2019-05-06T01:26:17.279Z,4.86
2019-05-06T01:28:48.534Z,4.85
2019-05-06T01:31:19.839Z,4.84
2019-05-06T01:33:53.419Z,4.83
2019-05-06T01:36:24.990Z,4.83
2019-05-06T01:39:13.985Z,4.85
2019-05-06T01:41:53.734Z,4.90
2019-05-06T01:44:25.059Z,4.93
2019-05-06T01:46:56.366Z,4.97
2019-05-06T01:49:27.707Z,4.99
2019-05-06T01:51:58.995Z,5.00
2019-05-06T01:54:30.306Z,5.01
2019-05-06T01:57:01.588Z,5.04
2019-05-06T01:59:34.050Z,5.09
2019-05-06T02:02:05.907Z,5.08
2019-05-06T02:04:37.204Z,5.10
2019-05-06T02:07:08.489Z,5.06
2019-05-06T02:09:39.769Z,5.09
2019-05-06T02:12:11.040Z,5.07
2019-05-06T02:14:43.705Z,5.07
2019-05-06T02:17:15.135Z,5.02
2019-05-06T02:19:46.419Z,4.98
2019-05-06T02:22:26.150Z,4.97
2019-05-06T02:25:01.034Z,4.95
2019-05-06T02:27:34.124Z,4.91
2019-05-06T02:30:28.080Z,4.87
2019-05-06T02:33:05.847Z,4.89
2019-05-06T02:35:45.613Z,4.81
2019-05-06T02:38:32.587Z,4.80
2019-05-06T02:40:57.500Z,4.78
2019-05-06T02:43:28.777Z,4.84
2019-05-06T02:46:03.946Z,4.73
2019-05-06T02:48:55.468Z,4.71
2019-05-06T02:51:28.220Z,4.68
2019-05-06T02:53:59.522Z,4.67
2019-05-06T02:56:33.287Z,4.58
2019-05-06T02:59:04.126Z,4.57
2019-05-06T03:01:35.434Z,4.52
2019-05-06T03:04:06.717Z,4.52
2019-05-06T03:06:37.971Z,4.45
2019-05-06T03:09:09.239Z,4.42
2019-05-06T03:11:40.537Z,4.38
2019-05-06T03:14:13.945Z,4.35
2019-05-06T03:16:44.844Z,4.28
2019-05-06T03:19:16.114Z,4.31
2019-05-06T03:22:09.264Z,4.21
2019-05-06T03:24:44.468Z,4.15
2019-05-06T03:27:15.767Z,4.11
2019-05-06T03:29:47.074Z,4.09
2019-05-06T03:32:24.824Z,4.10
2019-05-06T03:35:07.574Z,4.06
2019-05-06T03:37:24.340Z,4.08
2019-05-06T03:39:55.611Z,4.09
2019-05-06T03:42:26.872Z,4.10
2019-05-06T03:45:04.141Z,4.07
2019-05-06T03:47:47.002Z,4.04
2019-05-06T03:50:18.335Z,4.10
2019-05-06T03:52:49.869Z,4.17
2019-05-06T03:55:23.441Z,4.20
2019-05-06T03:57:57.098Z,4.16
2019-05-06T04:00:28.428Z,4.15
2019-05-06T04:03:02.803Z,4.15
2019-05-06T04:05:33.518Z,4.13
2019-05-06T04:08:05.092Z,4.19
2019-05-06T04:10:37.209Z,4.19
2019-05-06T04:13:13.460Z,4.23
2019-05-06T04:16:05.059Z,4.28
2019-05-06T04:18:38.281Z,4.36
2019-05-06T04:21:23.957Z,4.35
2019-05-06T04:24:04.096Z,4.41
2019-05-06T04:26:56.397Z,4.45
2019-05-06T04:29:29.360Z,4.48
2019-05-06T04:32:03.295Z,4.55
2019-05-06T04:34:34.424Z,4.69
2019-05-06T04:37:05.755Z,4.67
2019-05-06T04:39:37.094Z,4.68
2019-05-06T04:42:09.689Z,4.69
2019-05-06T04:44:43.786Z,4.76
2019-05-06T04:47:14.900Z,4.77
2019-05-06T04:49:46.856Z,4.77
2019-05-06T04:52:18.177Z,4.81
2019-05-06T04:54:49.455Z,4.76
2019-05-06T04:57:23.478Z,4.86
2019-05-06T04:59:54.400Z,4.86
2019-05-06T05:02:25.690Z,4.90
2019-05-06T05:04:57.780Z,4.83
2019-05-06T05:07:29.047Z,4.79
2019-05-06T05:10:09.318Z,4.72
2019-05-06T05:13:05.308Z,4.83
2019-05-06T05:15:58.232Z,4.85
2019-05-06T05:18:37.669Z,4.92
2019-05-06T05:21:09.040Z,4.93
2019-05-06T05:23:42.741Z,4.95
2019-05-06T05:26:13.682Z,4.96
2019-05-06T05:28:45.029Z,5.06
2019-05-06T05:31:16.352Z,5.00
2019-05-06T05:33:47.735Z,5.01
2019-05-06T05:36:19.051Z,5.02
2019-05-06T05:38:52.290Z,5.13
2019-05-06T05:41:24.031Z,5.22
2019-05-06T05:44:20.367Z,5.23
2019-05-06T05:46:52.326Z,5.22
2019-05-06T05:49:42.707Z,5.21
2019-05-06T05:52:14.366Z,5.23
2019-05-06T05:54:45.989Z,5.26
2019-05-06T05:57:17.791Z,5.24
2019-05-06T05:59:49.071Z,5.32
2019-05-06T06:02:22.482Z,5.32
2019-05-06T06:04:57.261Z,5.31
2019-05-06T06:07:26.842Z,5.45
2019-05-06T06:10:04.799Z,5.48
2019-05-06T06:12:36.124Z,5.47
2019-05-06T06:15:19.490Z,5.53
2019-05-06T06:18:15.563Z,5.55
2019-05-06T06:21:17.686Z,5.58
2019-05-06T06:23:42.042Z,5.66
2019-05-06T06:26:13.303Z,5.71
2019-05-06T06:28:44.552Z,5.87
2019-05-06T06:31:23.484Z,5.98
2019-05-06T06:34:01.522Z,5.95
2019-05-06T06:36:54.699Z,6.06
2019-05-06T06:39:29.750Z,6.26
2019-05-06T06:42:02.822Z,6.34
2019-05-06T06:44:35.598Z,6.44
2019-05-06T06:47:06.860Z,6.39
2019-05-06T06:49:38.266Z,6.47
2019-05-06T06:52:12.349Z,6.42
2019-05-06T06:54:43.841Z,6.41
2019-05-06T06:57:31.091Z,6.57
2019-05-06T07:00:06.878Z,6.69
2019-05-06T07:02:46.312Z,6.84
2019-05-06T07:05:33.034Z,6.93
2019-05-06T07:08:03.806Z,7.10
2019-05-06T07:10:53.364Z,7.23
2019-05-06T07:13:24.728Z,7.34
2019-05-06T07:15:56.022Z,7.44
2019-05-06T07:18:27.387Z,7.60
2019-05-06T07:21:15.514Z,7.68
2019-05-06T07:23:46.841Z,7.78
2019-05-06T07:26:19.991Z,7.70
2019-05-06T07:28:52.628Z,7.58
2019-05-06T07:31:26.701Z,7.63
2019-05-06T07:33:57.046Z,7.76
2019-05-06T07:36:28.551Z,7.64
2019-05-06T07:39:03.893Z,7.82
2019-05-06T07:41:43.462Z,7.91
2019-05-06T07:44:25.637Z,7.96
2019-05-06T07:47:05.416Z,7.99
2019-05-06T07:49:36.741Z,8.19
2019-05-06T07:52:08.024Z,8.32
2019-05-06T07:54:39.390Z,8.63
2019-05-06T07:57:12.524Z,8.93
2019-05-06T07:59:43.764Z,9.21
2019-05-06T08:02:15.036Z,9.54
2019-05-06T08:04:46.424Z,9.74
2019-05-06T08:07:17.721Z,9.72
2019-05-06T08:09:49.006Z,9.86
2019-05-06T08:12:22.246Z,9.88
2019-05-06T08:14:53.325Z,9.82
2019-05-06T08:17:35.250Z,10.06
2019-05-06T08:20:07.566Z,10.49
2019-05-06T08:22:56.627Z,10.83
2019-05-06T08:25:36.854Z,11.07
2019-05-06T08:28:08.161Z,10.72
2019-05-06T08:30:39.537Z,10.99
2019-05-06T08:33:12.719Z,11.34
2019-05-06T08:35:43.789Z,11.47
2019-05-06T08:38:15.081Z,11.87
2019-05-06T08:40:46.398Z,11.88
2019-05-06T08:43:17.710Z,11.94
2019-05-06T08:45:49.076Z,12.21
2019-05-06T08:48:22.028Z,12.39
2019-05-06T08:50:59.315Z,12.92
2019-05-06T08:53:49.474Z,13.01
2019-05-06T08:56:22.199Z,13.09
2019-05-06T08:58:53.549Z,12.79
2019-05-06T09:01:39.651Z,13.12
2019-05-06T09:04:13.751Z,13.53
2019-05-06T09:06:43.980Z,13.73
2019-05-06T09:09:15.321Z,13.85
2019-05-06T09:11:46.641Z,13.95
2019-05-06T09:14:17.927Z,14.18
2019-05-06T09:16:53.055Z,14.23
2019-05-06T09:19:23.317Z,13.71
2019-05-06T09:21:54.851Z,13.84
2019-05-06T09:24:26.208Z,13.85
2019-05-06T09:27:03.143Z,13.35
2019-05-06T09:29:47.162Z,13.46
2019-05-06T09:32:25.349Z,13.74
2019-05-06T09:34:58.444Z,13.64
2019-05-06T09:37:32.356Z,13.63
2019-05-06T09:40:03.069Z,13.88
2019-05-06T09:42:34.391Z,13.41
2019-05-06T09:45:06.363Z,13.02
2019-05-06T09:47:59.374Z,12.99
2019-05-06T09:50:46.019Z,12.74
2019-05-06T09:53:23.284Z,12.89
2019-05-06T09:56:33.496Z,12.94
2019-05-06T09:59:04.991Z,13.37
2019-05-06T10:01:36.440Z,14.32
2019-05-06T10:04:08.167Z,14.28
2019-05-06T10:06:39.604Z,13.63
2019-05-06T10:09:15.899Z,13.81
2019-05-06T10:11:45.483Z,13.82
2019-05-06T10:14:16.789Z,13.15
2019-05-06T10:16:48.086Z,12.64
2019-05-06T10:19:19.390Z,12.60
2019-05-06T10:21:52.884Z,12.27
2019-05-06T10:24:23.726Z,11.96
2019-05-06T10:26:58.505Z,11.61
2019-05-06T10:29:46.548Z,11.32
2019-05-06T10:32:26.748Z,11.27
2019-05-06T10:34:58.020Z,11.37
2019-05-06T10:37:36.788Z,11.33
2019-05-06T10:40:22.779Z,11.39
2019-05-06T10:43:43.137Z,11.47
2019-05-06T10:46:14.578Z,11.53
2019-05-06T10:48:45.845Z,11.87
2019-05-06T10:51:23.005Z,12.25
2019-05-06T10:53:54.399Z,12.58
2019-05-06T10:56:53.744Z,12.27
2019-05-06T10:59:17.768Z,12.50
2019-05-06T11:01:50.629Z,12.12
2019-05-06T11:04:22.523Z,12.13
2019-05-06T11:06:53.917Z,12.12
2019-05-06T11:09:25.200Z,11.92
2019-05-06T11:11:56.541Z,11.68
2019-05-06T11:14:27.775Z,11.38
2019-05-06T11:16:59.116Z,11.02
2019-05-06T11:19:30.386Z,10.91
2019-05-06T11:22:03.602Z,10.75
2019-05-06T11:24:35.344Z,10.64
2019-05-06T11:27:07.536Z,10.49
2019-05-06T11:29:43.528Z,10.41
2019-05-06T11:32:33.074Z,10.22
2019-05-06T11:35:16.677Z,10.40
2019-05-06T11:38:12.024Z,10.64
2019-05-06T11:40:43.410Z,10.55
2019-05-06T11:43:44.425Z,10.72
2019-05-06T11:46:16.251Z,10.97
2019-05-06T11:48:48.097Z,11.27
2019-05-06T11:51:23.084Z,11.47
2019-05-06T11:53:55.019Z,11.45
2019-05-06T11:56:50.984Z,11.09
2019-05-06T11:59:19.300Z,10.77
2019-05-06T12:01:56.459Z,10.36
2019-05-06T12:04:28.353Z,9.93
2019-05-06T12:07:10.182Z,9.62
2019-05-06T12:09:33.815Z,9.50
2019-05-06T12:12:05.684Z,9.38
2019-05-06T12:14:37.500Z,9.47
2019-05-06T12:17:09.347Z,9.37
2019-05-06T12:19:43.258Z,9.50
2019-05-06T12:22:14.781Z,9.45
2019-05-06T12:24:46.654Z,9.46
2019-05-06T12:27:35.843Z,9.56
2019-05-06T12:30:08.197Z,9.60
2019-05-06T12:32:44.663Z,9.63
2019-05-06T12:35:16.635Z,9.69
2019-05-06T12:37:52.964Z,9.80
2019-05-06T12:40:24.405Z,9.78
2019-05-06T12:43:15.165Z,9.89
2019-05-06T12:45:48.810Z,9.79
2019-05-06T12:48:33.243Z,10.14
2019-05-06T12:51:05.159Z,10.40
2019-05-06T12:53:37.002Z,10.74
2019-05-06T12:56:09.011Z,11.10
2019-05-06T12:58:44.097Z,11.57
2019-05-06T13:01:14.447Z,11.95
2019-05-06T13:03:46.320Z,11.94
2019-05-06T13:06:18.840Z,12.20
2019-05-06T13:08:58.800Z,12.15
2019-05-06T13:11:25.347Z,12.51
2019-05-06T13:14:00.674Z,12.82
2019-05-06T13:16:33.220Z,12.96
2019-05-06T13:19:04.709Z,13.55
2019-05-06T13:21:36.561Z,13.68
2019-05-06T13:24:08.644Z,13.83
2019-05-06T13:26:42.904Z,14.20
2019-05-06T13:29:22.683Z,14.67
2019-05-06T13:31:54.609Z,14.47
2019-05-06T13:34:26.512Z,14.72
2019-05-06T13:36:58.432Z,14.69
2019-05-06T13:39:32.580Z,14.12
2019-05-06T13:42:03.831Z,14.06
2019-05-06T13:44:35.693Z,14.12
2019-05-06T13:47:09.496Z,14.41
2019-05-06T13:49:53.799Z,14.50
2019-05-06T13:52:27.548Z,14.29
2019-05-06T13:54:59.470Z,14.01
2019-05-06T13:57:32.067Z,13.94
2019-05-06T14:00:04.434Z,13.51
2019-05-06T14:02:45.333Z,13.76
2019-05-06T14:05:17.764Z,13.61
2019-05-06T14:07:49.610Z,13.32
2019-05-06T14:10:22.248Z,13.39
2019-05-06T14:12:54.177Z,13.39
2019-05-06T14:15:26.013Z,12.81
2019-05-06T14:17:57.944Z,12.68
2019-05-06T14:20:29.739Z,12.42
2019-05-06T14:23:02.260Z,12.27
2019-05-06T14:25:45.336Z,12.33
2019-05-06T14:28:24.822Z,12.28
2019-05-06T14:31:06.055Z,12.34
2019-05-06T14:33:37.953Z,12.01
2019-05-06T14:36:13.072Z,11.64
2019-05-06T14:38:44.973Z,11.74
2019-05-06T14:41:26.128Z,11.92
2019-05-06T14:43:53.582Z,12.07
2019-05-06T14:46:25.472Z,11.99
2019-05-06T14:48:57.303Z,12.07
2019-05-06T14:51:29.260Z,11.84
2019-05-06T14:54:01.105Z,11.71
2019-05-06T14:56:44.719Z,11.31
2019-05-06T14:59:16.621Z,11.53
2019-05-06T15:01:48.493Z,11.37
2019-05-06T15:04:22.811Z,11.45
2019-05-06T15:06:53.962Z,11.61
2019-05-06T15:09:25.896Z,11.80
2019-05-06T15:11:57.741Z,11.91
2019-05-06T15:14:29.599Z,11.96
2019-05-06T15:17:02.226Z,11.97
2019-05-06T15:19:34.240Z,11.83
2019-05-06T15:22:06.282Z,11.89
2019-05-06T15:24:38.135Z,11.78
2019-05-06T15:27:11.969Z,11.79
2019-05-06T15:29:48.668Z,11.67
2019-05-06T15:32:24.994Z,11.76
2019-05-06T15:35:18.697Z,11.63
2019-05-06T15:37:54.024Z,11.59
2019-05-06T15:40:32.846Z,11.53
2019-05-06T15:42:59.659Z,11.50
2019-05-06T15:45:32.492Z,11.47
2019-05-06T15:48:04.482Z,11.37
2019-05-06T15:50:36.342Z,11.38
2019-05-06T15:53:08.293Z,11.06
2019-05-06T15:55:40.173Z,10.91
2019-05-06T15:58:12.487Z,10.84
2019-05-06T16:00:44.373Z,10.80
2019-05-06T16:03:16.304Z,10.53
2019-05-06T16:05:48.170Z,10.46
2019-05-06T16:08:20.008Z,10.42
2019-05-06T16:10:58.075Z,10.48
2019-05-06T16:13:25.560Z,10.45
2019-05-06T16:15:57.494Z,10.16
2019-05-06T16:18:29.332Z,10.18
2019-05-06T16:21:02.924Z,10.25
2019-05-06T16:23:42.317Z,10.01
2019-05-06T16:26:14.279Z,10.08
2019-05-06T16:28:46.182Z,10.08
2019-05-06T16:31:19.704Z,10.13
2019-05-06T16:33:52.434Z,10.09
2019-05-06T16:36:24.333Z,10.08
2019-05-06T16:38:56.211Z,10.03
2019-05-06T16:41:28.091Z,10.05
2019-05-06T16:44:02.032Z,9.85
2019-05-06T16:46:34.254Z,9.92
2019-05-06T16:49:06.225Z,9.80
2019-05-06T16:51:38.091Z,9.60
2019-05-06T16:54:09.949Z,9.60
2019-05-06T16:56:47.266Z,9.46
2019-05-06T16:59:19.145Z,9.27
2019-05-06T17:01:52.322Z,9.16
2019-05-06T17:04:46.294Z,9.09
2019-05-06T17:07:18.180Z,9.10
2019-05-06T17:09:49.989Z,9.14
2019-05-06T17:12:22.443Z,9.12
2019-05-06T17:14:54.343Z,9.12
2019-05-06T17:17:39.845Z,9.17
2019-05-06T17:19:59.758Z,8.94
2019-05-06T17:22:32.583Z,9.01
2019-05-06T17:25:04.655Z,9.00
2019-05-06T17:27:38.371Z,8.95
2019-05-06T17:30:25.388Z,8.77
2019-05-06T17:33:02.311Z,8.81
2019-05-06T17:35:34.099Z,8.87
2019-05-06T17:38:18.174Z,8.81
2019-05-06T17:40:49.966Z,8.78
2019-05-06T17:43:22.621Z,8.88
2019-05-06T17:46:03.108Z,8.71
2019-05-06T17:48:42.973Z,8.77
2019-05-06T17:51:16.537Z,8.79
2019-05-06T17:53:52.251Z,8.88
2019-05-06T17:56:24.297Z,8.73
2019-05-06T17:58:56.173Z,8.70
2019-05-06T18:01:38.852Z,8.70
2019-05-06T18:04:12.577Z,8.64
2019-05-06T18:06:44.606Z,8.70
2019-05-06T18:09:16.481Z,8.73
2019-05-06T18:11:58.261Z,8.61
2019-05-06T18:14:23.016Z,8.66
2019-05-06T18:16:54.918Z,8.57
2019-05-06T18:19:26.762Z,8.56
2019-05-06T18:21:58.641Z,8.55
2019-05-06T18:24:30.514Z,8.48
2019-05-06T18:27:02.720Z,8.45
2019-05-06T18:29:34.646Z,8.46
2019-05-06T18:32:06.480Z,8.46
2019-05-06T18:34:38.352Z,8.40
2019-05-06T18:37:12.514Z,8.53
2019-05-06T18:39:43.808Z,8.51
2019-05-06T18:42:20.166Z,8.45
2019-05-06T18:44:49.299Z,8.32
2019-05-06T18:47:21.192Z,8.32
2019-05-06T18:49:55.296Z,8.29
2019-05-06T18:52:27.178Z,8.26
2019-05-06T18:54:59.103Z,8.34
2019-05-06T18:57:32.823Z,8.37
2019-05-06T19:00:04.868Z,8.34
2019-05-06T19:02:36.833Z,8.24
2019-05-06T19:05:26.864Z,8.23
2019-05-06T19:07:56.787Z,8.28
2019-05-06T19:10:29.686Z,8.36
2019-05-06T19:13:02.052Z,8.19
2019-05-06T19:15:34.488Z,8.29
2019-05-06T19:18:06.448Z,8.23
2019-05-06T19:20:38.283Z,8.35
2019-05-06T19:23:10.130Z,8.32
2019-05-06T19:25:42.811Z,8.14
2019-05-06T19:28:14.773Z,8.21
2019-05-06T19:30:46.644Z,8.08
2019-05-06T19:33:18.475Z,8.08
2019-05-06T19:35:52.295Z,8.06
2019-05-06T19:38:24.540Z,8.10
2019-05-06T19:40:56.522Z,8.04
2019-05-06T19:43:28.410Z,7.96
2019-05-06T19:46:02.439Z,8.07
2019-05-06T19:48:33.828Z,8.05
2019-05-06T19:51:05.663Z,7.93
2019-05-06T19:53:37.519Z,7.88
2019-05-06T19:56:09.408Z,7.90
2019-05-06T19:58:42.879Z,7.92
2019-05-06T20:01:14.927Z,7.93
2019-05-06T20:03:46.829Z,7.94
2019-05-06T20:06:37.586Z,8.04
2019-05-06T20:09:38.377Z,7.94
2019-05-06T20:12:15.672Z,7.93
2019-05-06T20:14:47.629Z,7.96
2019-05-06T20:17:19.621Z,7.90
2019-05-06T20:19:51.963Z,7.88
2019-05-06T20:22:23.856Z,7.85
2019-05-06T20:24:55.859Z,7.85
2019-05-06T20:27:27.714Z,7.78
2019-05-06T20:29:59.579Z,7.90
2019-05-06T20:32:32.250Z,7.87
2019-05-06T20:35:06.386Z,7.88
2019-05-06T20:37:38.093Z,7.90
2019-05-06T20:40:12.465Z,7.90
2019-05-06T20:42:43.665Z,7.96
2019-05-06T20:45:15.698Z,7.99
2019-05-06T20:47:47.591Z,8.04
2019-05-06T20:50:19.931Z,8.02
2019-05-06T20:52:52.106Z,8.00
2019-05-06T20:55:24.045Z,7.98
2019-05-06T20:57:55.874Z,8.05
2019-05-06T21:00:28.626Z,8.02
2019-05-06T21:03:00.462Z,8.03
2019-05-06T21:05:32.686Z,8.03
2019-05-06T21:08:04.766Z,7.98
2019-05-06T21:10:36.643Z,7.96
2019-05-06T21:13:08.450Z,7.97
2019-05-06T21:15:40.300Z,8.00
2019-05-06T21:18:12.285Z,7.96
2019-05-06T21:20:44.916Z,7.94
2019-05-06T21:23:16.801Z,7.93
2019-05-06T21:25:48.636Z,7.94
2019-05-06T21:28:20.542Z,7.95
2019-05-06T21:30:52.875Z,7.98
2019-05-06T21:33:24.975Z,7.98
2019-05-06T21:35:56.818Z,7.97
2019-05-06T21:38:28.667Z,7.97
2019-05-06T21:41:02.071Z,7.98
2019-05-06T21:43:46.061Z,8.01
2019-05-06T21:46:07.600Z,8.03
2019-05-06T21:48:39.449Z,8.03
2019-05-06T21:51:12.694Z,8.02
2019-05-06T21:53:44.649Z,8.04
2019-05-06T21:56:16.480Z,8.06
2019-05-06T21:58:48.368Z,8.07
2019-05-06T22:01:22.138Z,8.11
2019-05-06T22:03:54.129Z,8.09
2019-05-06T22:06:25.971Z,8.11
2019-05-06T22:08:57.813Z,8.11
2019-05-06T22:11:29.674Z,8.11
2019-05-06T22:14:04.603Z,8.13
2019-05-06T22:16:36.457Z,8.12
2019-05-06T22:19:08.291Z,8.12
2019-05-06T22:21:48.959Z,8.13
2019-05-06T22:24:22.345Z,8.13
2019-05-06T22:26:54.270Z,8.13
2019-05-06T22:29:26.136Z,8.15
2019-05-06T22:31:58.765Z,8.15
2019-05-06T22:34:32.820Z,8.17
2019-05-06T22:37:04.189Z,8.15
2019-05-06T22:39:36.065Z,8.17
2019-05-06T22:42:07.901Z,8.16
2019-05-06T22:44:39.747Z,8.18
2019-05-06T22:47:12.147Z,8.16
2019-05-06T22:49:44.132Z,8.17
2019-05-06T22:52:15.970Z,8.17
2019-05-06T22:54:47.856Z,8.17
2019-05-06T22:57:19.707Z,8.17
2019-05-06T22:59:52.327Z,8.16
2019-05-06T23:02:36.780Z,8.15
2019-05-06T23:05:09.710Z,8.15
2019-05-06T23:07:42.317Z,8.14
2019-05-06T23:10:14.311Z,8.11
2019-05-06T23:12:46.111Z,8.07
2019-05-06T23:15:18.017Z,8.06
2019-05-06T23:17:49.814Z,8.05
2019-05-06T23:20:24.227Z,8.03
2019-05-06T23:22:55.102Z,8.02
2019-05-06T23:25:26.945Z,8.02
2019-05-06T23:27:58.807Z,8.00
2019-05-06T23:30:33.251Z,8.01
2019-05-06T23:33:04.428Z,8.00
2019-05-06T23:35:36.308Z,8.01
2019-05-06T23:39:01.968Z,8.01
2019-05-06T23:42:27.080Z,8.04
2019-05-06T23:45:54.244Z,8.00
2019-05-06T23:49:19.044Z,7.97
2019-05-06T23:52:43.779Z,8.01
2019-05-06T23:56:08.458Z,7.96
2019-05-06T23:58:40.300Z,7.94
